Time;durP1;ratioP1;P1;durP2;ratioP2;P2;SDS_P1;SDS_P2;PMS_P1;PMS_P2;Temp;Humidity;BMP_temperature;BMP_pressure;BME280_temperature;BME280_humidity;BME280_pressure;Samples;Min_cycle;Max_cycle;Signal;HPM_P1;HPM_P2
2022/08/21 00:01:15;;;;;;;6.10;2.60;;;17.60;88.70;;;16.36;100.00;96103.13;5007186;28;20042;-65
2022/08/21 00:03:41;;;;;;;3.92;2.63;;;17.60;88.60;;;16.32;100.00;96094.00;5040108;28;20096;-64
2022/08/21 00:06:06;;;;;;;3.70;2.47;;;17.60;88.70;;;16.31;100.00;96095.03;5003630;28;20496;-65
2022/08/21 00:08:32;;;;;;;4.00;2.63;;;17.60;88.70;;;16.29;100.00;96091.78;5016142;28;20586;-65
2022/08/21 00:10:58;;;;;;;3.75;2.40;;;17.50;88.60;;;16.26;100.00;96096.72;5008347;28;20573;-64
2022/08/21 00:13:24;;;;;;;3.50;2.70;;;17.50;88.90;;;16.24;100.00;96089.00;4997640;28;20647;-64
2022/08/21 00:15:50;;;;;;;2.63;2.20;;;17.50;88.80;;;16.21;100.00;96090.25;5002940;28;20033;-64
2022/08/21 00:18:16;;;;;;;3.40;2.53;;;17.50;88.70;;;16.20;100.00;96088.63;5007210;28;20124;-64
2022/08/21 00:20:42;;;;;;;3.85;2.75;;;17.50;88.70;;;16.17;100.00;96090.94;5021598;28;20140;-64
2022/08/21 00:23:07;;;;;;;3.20;2.47;;;17.50;88.60;;;16.15;100.00;96095.66;5020288;28;20125;-64
2022/08/21 00:25:34;;;;;;;3.00;2.47;;;17.40;88.70;;;16.12;100.00;96091.63;5021853;28;20033;-62
2022/08/21 00:28:01;;;;;;;3.20;2.20;;;17.40;88.80;;;16.10;100.00;96084.91;4991910;28;20068;-63
2022/08/21 00:30:27;;;;;;;2.95;2.45;;;17.40;88.60;;;16.08;100.00;96085.13;4982807;28;20418;-63
2022/08/21 00:32:54;;;;;;;3.35;2.50;;;17.40;88.60;;;16.07;100.00;96085.34;5004264;28;20238;-63
2022/08/21 00:35:25;;;;;;;3.13;2.35;;;17.30;88.60;;;16.05;100.00;96082.09;5000211;28;20152;-63
2022/08/21 00:37:51;;;;;;;2.80;2.50;;;17.30;88.50;;;16.03;100.00;96086.81;5024006;28;20148;-63
2022/08/21 00:40:20;;;;;;;4.20;2.60;;;17.30;88.70;;;16.01;100.00;96080.94;4976875;28;20034;-63
2022/08/21 00:42:45;;;;;;;5.63;2.85;;;17.30;88.60;;;15.98;100.00;96081.38;5003530;28;20393;-63
2022/08/21 00:45:11;;;;;;;2.35;2.15;;;17.30;88.70;;;15.96;100.00;96073.66;5006606;28;20048;-64
2022/08/21 00:47:37;;;;;;;3.65;2.50;;;17.20;88.50;;;15.95;100.00;96077.34;5023543;28;20450;-65
2022/08/21 00:50:05;;;;;;;3.00;2.42;;;17.20;88.60;;;15.93;100.00;96082.06;5020012;28;20067;-63
2022/08/21 00:52:32;;;;;;;2.65;2.38;;;17.20;88.60;;;15.91;100.00;96079.63;5023387;28;20041;-63
2022/08/21 00:54:57;;;;;;;3.25;2.33;;;17.20;88.60;;;15.89;100.00;96083.53;4971305;28;20038;-63
2022/08/21 00:57:29;;;;;;;4.38;2.42;;;17.10;88.60;;;15.88;100.00;96073.97;4995224;28;20038;-63
2022/08/21 00:59:56;;;;;;;2.97;2.20;;;17.10;88.50;;;15.86;100.00;96071.53;5022643;28;20572;-63
2022/08/21 01:02:22;;;;;;;5.68;2.70;;;17.10;88.50;;;15.84;100.00;96070.94;4998506;28;20037;-63
2022/08/21 01:04:48;;;;;;;2.38;2.17;;;17.10;88.60;;;15.80;100.00;96067.09;4989726;28;20671;-65
2022/08/21 01:07:14;;;;;;;3.97;2.63;;;17.00;88.70;;;15.77;100.00;96062.22;5000108;28;20092;-63
2022/08/21 01:09:40;;;;;;;3.30;2.20;;;17.00;88.90;;;15.73;100.00;96066.38;5012014;28;20120;-63
2022/08/21 01:12:06;;;;;;;3.05;2.53;;;16.90;88.90;;;15.72;100.00;96067.41;4999420;28;20041;-63
2022/08/21 01:14:32;;;;;;;3.75;2.17;;;16.90;89.10;;;15.70;100.00;96066.81;5003118;28;20095;-64
2022/08/21 01:16:58;;;;;;;4.63;2.45;;;17.00;89.10;;;15.67;100.00;96061.97;5003797;28;20037;-63
2022/08/21 01:19:24;;;;;;;4.85;2.55;;;16.80;89.10;;;15.66;100.00;96064.84;5002767;28;20041;-63
2022/08/21 01:21:49;;;;;;;4.38;2.30;;;16.90;89.10;;;15.64;100.00;96059.75;5023506;28;20041;-63
2022/08/21 01:24:15;;;;;;;3.20;2.30;;;16.80;89.00;;;15.61;100.00;96053.06;5021483;28;20525;-63
2022/08/21 01:26:41;;;;;;;3.80;2.50;;;16.80;89.00;;;15.59;100.00;96056.94;5023068;28;20117;-63
2022/08/21 01:29:28;;;;;;;2.50;2.13;;;16.80;89.10;;;15.57;100.00;96057.13;5021536;28;20034;-63
2022/08/21 01:31:53;;;;;;;3.28;2.20;;;16.80;89.00;;;15.53;100.00;96053.31;5008742;28;20034;-64
2022/08/21 01:34:19;;;;;;;4.47;2.70;;;16.80;89.00;;;15.52;100.00;96050.88;5021415;28;20040;-63
2022/08/21 01:36:45;;;;;;;4.10;2.15;;;16.70;89.10;;;15.51;100.00;96057.22;5025623;28;20037;-63
2022/08/21 01:39:11;;;;;;;4.45;2.03;;;16.70;89.00;;;15.50;100.00;96059.03;5002217;28;20124;-63
2022/08/21 01:41:37;;;;;;;3.22;2.28;;;16.70;89.00;;;15.48;100.00;96057.66;4994095;28;20025;-64
2022/08/21 01:44:03;;;;;;;2.25;2.03;;;16.70;89.00;;;15.45;100.00;96056.25;5009187;28;20125;-64
2022/08/21 01:46:29;;;;;;;2.50;2.25;;;16.70;89.00;;;15.44;100.00;96061.78;5009484;28;20033;-65
2022/08/21 01:48:55;;;;;;;3.53;2.33;;;16.70;89.10;;;15.42;100.00;96063.84;5024103;28;20067;-63
2022/08/21 01:51:20;;;;;;;3.75;2.38;;;16.60;89.20;;;15.39;100.00;96054.50;5008561;28;20575;-63
2022/08/21 01:53:46;;;;;;;4.10;2.50;;;16.60;89.10;;;15.38;100.00;96052.03;5005668;28;20562;-64
2022/08/21 01:56:13;;;;;;;3.58;2.65;;;16.60;89.20;;;15.36;100.00;96054.09;5017137;28;20517;-63
2022/08/21 01:58:40;;;;;;;5.78;2.50;;;16.60;89.10;;;15.32;100.00;96057.19;4994869;28;20133;-63
2022/08/21 02:01:06;;;;;;;5.72;2.30;;;16.50;89.30;;;15.30;100.00;96051.28;4998443;28;20065;-63
2022/08/21 02:03:32;;;;;;;10.43;2.55;;;16.50;89.30;;;15.29;100.00;96044.38;5007696;28;20481;-63
2022/08/21 02:05:57;;;;;;;2.45;2.05;;;16.50;89.20;;;15.28;100.00;96042.75;5020405;28;20473;-63
2022/08/21 02:08:23;;;;;;;5.22;2.60;;;16.50;89.20;;;15.27;100.00;96037.69;5022830;28;20520;-63
2022/08/21 02:10:50;;;;;;;2.80;2.17;;;16.50;89.10;;;15.25;100.00;96037.91;4994195;28;20127;-64
2022/08/21 02:13:16;;;;;;;2.67;2.13;;;16.50;89.20;;;15.25;100.00;96037.91;5010052;28;20063;-63
2022/08/21 02:15:42;;;;;;;4.80;2.35;;;16.50;89.00;;;15.22;100.00;96035.69;5028214;28;20041;-64
2022/08/21 02:18:08;;;;;;;2.95;1.92;;;16.50;89.10;;;15.21;100.00;96039.38;4999159;28;20116;-64
2022/08/21 02:20:37;;;;;;;2.63;2.22;;;16.50;89.20;;;15.21;100.00;96041.22;4998096;28;20057;-64
2022/08/21 02:23:03;;;;;;;3.47;2.15;;;16.40;89.10;;;15.18;100.00;96039.00;5000575;28;20373;-64
2022/08/21 02:25:30;;;;;;;4.72;2.30;;;16.40;89.20;;;15.16;100.00;96035.75;5011604;28;21648;-64
2022/08/21 02:27:55;;;;;;;2.42;2.22;;;16.40;89.20;;;15.15;100.00;96029.63;5025944;28;20087;-64
2022/08/21 02:30:27;;;;;;;6.40;2.30;;;16.40;89.20;;;15.15;100.00;96037.56;5005858;28;20118;-64
2022/08/21 02:32:53;;;;;;;3.13;2.33;;;16.40;89.10;;;15.13;100.00;96044.13;5014295;28;20427;-64
2022/08/21 02:35:19;;;;;;;3.83;2.47;;;16.40;89.10;;;15.11;100.00;96038.25;5031715;28;20033;-64
2022/08/21 02:37:48;;;;;;;3.72;2.38;;;16.40;89.20;;;15.09;100.00;96035.81;5024259;28;20735;-64
2022/08/21 02:40:14;;;;;;;3.10;2.60;;;16.40;89.20;;;15.05;100.00;96039.94;5006570;28;20121;-64
2022/08/21 02:42:40;;;;;;;3.55;2.63;;;16.20;89.30;;;15.01;100.00;96034.25;5001367;28;20083;-64
2022/08/21 02:45:07;;;;;;;4.28;2.63;;;16.20;89.40;;;15.02;100.00;96035.06;5008743;28;20097;-64
2022/08/21 02:47:32;;;;;;;3.67;2.60;;;16.20;89.20;;;14.99;100.00;96035.50;5008276;28;20031;-64
2022/08/21 02:49:58;;;;;;;3.53;2.70;;;16.20;89.30;;;14.99;100.00;96032.88;5020698;28;20504;-63
2022/08/21 02:52:24;;;;;;;3.95;2.65;;;16.20;89.20;;;14.96;100.00;96028.00;5021025;28;20609;-64
2022/08/21 02:54:49;;;;;;;3.83;3.00;;;16.20;89.10;;;14.95;100.00;96037.78;5024695;28;20034;-64
2022/08/21 02:57:15;;;;;;;5.15;3.03;;;16.20;89.20;;;14.95;100.00;96026.38;5010640;28;20087;-64
2022/08/21 02:59:41;;;;;;;3.90;3.00;;;16.30;89.00;;;14.94;100.00;96036.16;5015264;28;20061;-63
2022/08/21 03:02:07;;;;;;;5.28;2.90;;;16.20;88.90;;;14.93;100.00;96034.53;5012325;28;20040;-63
2022/08/21 03:04:32;;;;;;;3.13;2.63;;;16.30;88.90;;;14.92;100.00;96037.38;5011321;28;20107;-63
2022/08/21 03:06:58;;;;;;;3.13;2.72;;;16.20;88.80;;;14.93;100.00;96044.31;5011308;28;20486;-63
2022/08/21 03:09:24;;;;;;;3.75;2.50;;;16.20;88.70;;;14.92;100.00;96037.38;5007162;28;20034;-63
2022/08/21 03:11:51;;;;;;;4.63;2.70;;;16.30;88.60;;;14.91;100.00;96041.06;5029265;28;20025;-62
2022/08/21 03:14:17;;;;;;;3.50;2.60;;;16.20;88.40;;;14.91;100.00;96049.00;5000379;28;20455;-63
2022/08/21 03:16:43;;;;;;;4.20;2.85;;;16.20;88.40;;;14.88;100.00;96044.16;5018062;28;20129;-63
2022/08/21 03:19:09;;;;;;;4.03;2.80;;;16.20;88.30;;;14.86;100.00;96041.72;5026940;28;20037;-63
2022/08/21 03:21:35;;;;;;;7.07;2.88;;;16.20;88.30;;;14.84;100.00;96051.72;5006737;28;21743;-63
2022/08/21 03:24:01;;;;;;;3.10;2.80;;;16.10;88.30;;;14.82;100.00;96043.19;5027655;28;20108;-62
2022/08/21 03:26:27;;;;;;;4.85;2.90;;;16.20;88.30;;;14.81;100.00;96051.34;5010640;28;20041;-63
2022/08/21 03:28:53;;;;;;;3.38;2.63;;;16.10;88.30;;;14.79;100.00;96048.91;5027066;28;20057;-64
2022/08/21 03:31:18;;;;;;;3.05;2.75;;;16.10;88.30;;;14.78;100.00;96043.84;5011125;28;20417;-63
2022/08/21 03:33:44;;;;;;;4.70;3.00;;;16.10;88.30;;;14.75;100.00;96038.97;5026749;28;20136;-63
2022/08/21 03:36:11;;;;;;;3.13;2.70;;;16.10;88.30;;;14.74;100.00;96045.31;5011141;28;20044;-63
2022/08/21 03:38:37;;;;;;;6.53;2.78;;;16.10;88.30;;;14.73;100.00;96038.41;4999354;28;20434;-63
2022/08/21 03:41:04;;;;;;;4.00;2.75;;;16.10;88.30;;;14.71;100.00;96041.25;5026557;28;20156;-63
2022/08/21 03:43:30;;;;;;;3.42;2.53;;;16.00;88.40;;;14.69;100.00;96035.34;4994302;28;20056;-63
2022/08/21 03:45:55;;;;;;;6.63;3.22;;;16.00;88.20;;;14.66;100.00;96046.38;4994043;28;20564;-63
2022/08/21 03:48:21;;;;;;;3.53;2.90;;;16.00;88.20;;;14.64;100.00;96040.47;5010054;28;20120;-63
2022/08/21 03:50:49;;;;;;;4.70;3.22;;;16.00;88.30;;;14.61;100.00;96039.06;4993447;28;20073;-63
2022/08/21 03:53:15;;;;;;;4.97;3.08;;;16.00;88.30;;;14.60;100.00;96045.41;4998103;28;20038;-63
2022/08/21 03:55:40;;;;;;;3.28;2.97;;;15.90;88.40;;;14.58;100.00;96050.09;5019091;28;20032;-63
2022/08/21 03:58:06;;;;;;;3.40;3.10;;;15.90;88.40;;;14.57;100.00;96050.31;5029298;28;20033;-63
2022/08/21 04:00:32;;;;;;;5.22;2.90;;;15.80;88.30;;;14.54;100.00;96051.56;5013389;28;20186;-63
2022/08/21 04:02:58;;;;;;;4.10;3.00;;;15.80;88.30;;;14.54;100.00;96053.41;5029056;28;20025;-63
2022/08/21 04:05:29;;;;;;;3.00;2.47;;;15.80;88.30;;;14.51;100.00;96054.63;5026990;28;20030;-63
2022/08/21 04:07:57;;;;;;;4.63;3.03;;;15.80;88.40;;;14.50;100.00;96050.38;5017290;28;20033;-63
2022/08/21 04:10:24;;;;;;;3.67;2.85;;;15.80;88.30;;;14.49;100.00;96047.94;4985759;28;20128;-63
2022/08/21 04:12:50;;;;;;;3.00;2.70;;;15.80;88.30;;;14.47;100.00;96050.78;4993139;28;20517;-63
2022/08/21 04:15:16;;;;;;;4.68;3.08;;;15.70;88.30;;;14.46;100.00;96054.44;5000535;28;20045;-63
2022/08/21 04:17:42;;;;;;;4.25;3.15;;;15.70;88.30;;;14.45;100.00;96058.13;5025893;28;20034;-63
2022/08/21 04:20:08;;;;;;;7.45;3.25;;;15.70;88.40;;;14.42;100.00;96053.22;5004005;28;20069;-63
2022/08/21 04:22:34;;;;;;;3.92;3.00;;;15.70;88.40;;;14.41;100.00;96057.72;5025207;28;20032;-63
2022/08/21 04:25:00;;;;;;;3.35;2.80;;;15.70;88.60;;;14.40;100.00;96058.72;5010157;28;20428;-63
2022/08/21 04:27:25;;;;;;;3.25;2.90;;;15.70;88.40;;;14.39;100.00;96064.25;5008366;28;20430;-63
2022/08/21 04:29:51;;;;;;;5.22;3.00;;;15.60;88.50;;;14.35;100.00;96066.50;4994273;28;20530;-63
2022/08/21 04:32:24;;;;;;;4.53;3.08;;;15.70;88.40;;;14.36;100.00;96067.31;5023507;28;20076;-63
2022/08/21 04:34:50;;;;;;;3.35;2.85;;;15.70;88.40;;;14.34;100.00;96072.81;5023380;28;20057;-63
2022/08/21 04:37:15;;;;;;;3.85;3.15;;;15.70;88.40;;;14.34;100.00;96074.66;5018738;28;20575;-63
2022/08/21 04:39:42;;;;;;;3.78;2.97;;;15.60;88.40;;;14.31;100.00;96081.19;5010434;28;20075;-63
2022/08/21 04:42:08;;;;;;;5.07;2.85;;;15.60;88.60;;;14.31;100.00;96085.69;5006495;28;20096;-63
2022/08/21 04:44:34;;;;;;;4.90;2.60;;;15.60;88.50;;;14.30;100.00;96081.41;5009360;28;20123;-63
2022/08/21 04:47:00;;;;;;;4.38;2.78;;;15.70;88.40;;;14.30;100.00;96087.50;4995766;28;20401;-63
2022/08/21 04:49:26;;;;;;;3.28;2.67;;;15.60;88.30;;;14.30;100.00;96087.50;4988327;28;20030;-64
2022/08/21 04:51:52;;;;;;;3.80;2.70;;;15.60;88.40;;;14.30;100.00;96090.16;5019347;28;20390;-63
2022/08/21 04:54:20;;;;;;;4.15;3.05;;;15.60;88.30;;;14.29;100.00;96091.19;5004318;28;20056;-63
2022/08/21 04:56:59;;;;;;;3.70;3.25;;;15.60;88.40;;;14.29;100.00;96090.38;5008907;28;20521;-63
2022/08/21 04:59:35;;;;;;;3.50;2.88;;;15.60;88.50;;;14.29;100.00;96091.19;5009273;28;20155;-63
2022/08/21 05:02:01;;;;;;;4.85;2.60;;;15.70;88.40;;;14.28;100.00;96094.84;5010351;28;20026;-63
2022/08/21 05:04:30;;;;;;;3.30;2.83;;;15.70;88.30;;;14.31;100.00;96093.63;5020136;28;20034;-64
2022/08/21 05:06:57;;;;;;;4.97;3.03;;;15.70;88.30;;;14.31;100.00;96090.97;5010436;28;20037;-63
2022/08/21 05:09:23;;;;;;;6.57;2.95;;;15.70;88.30;;;14.32;100.00;96095.22;5026236;28;20646;-63
2022/08/21 05:11:49;;;;;;;3.60;2.60;;;15.70;88.20;;;14.33;100.00;96092.38;5012794;28;20033;-63
2022/08/21 05:14:15;;;;;;;4.15;3.03;;;15.80;88.10;;;14.35;100.00;96090.31;4966175;28;20034;-63
2022/08/21 05:16:43;;;;;;;4.90;2.88;;;15.80;88.10;;;14.38;100.00;96089.09;5001917;28;20183;-67
2022/08/21 05:19:09;;;;;;;3.88;2.97;;;15.80;88.10;;;14.40;100.00;96092.31;5004333;28;20057;-65
2022/08/21 05:21:35;;;;;;;5.07;3.47;;;15.90;88.20;;;14.42;100.00;96100.84;5008438;28;20511;-65
2022/08/21 05:24:01;;;;;;;4.43;3.13;;;15.90;88.40;;;14.46;100.00;96099.44;5023763;28;20040;-66
2022/08/21 05:26:27;;;;;;;3.42;3.10;;;16.00;88.30;;;14.51;100.00;96104.94;5003953;28;20033;-68
2022/08/21 05:28:53;;;;;;;3.10;2.70;;;16.10;88.20;;;14.55;100.00;96089.44;5007471;28;20120;-66
2022/08/21 05:31:19;;;;;;;3.75;2.78;;;16.10;88.20;;;14.60;100.00;96087.75;4997321;28;20061;-67
2022/08/21 05:33:44;;;;;;;3.50;2.80;;;16.20;88.20;;;14.67;100.00;96093.81;5013500;28;20085;-67
2022/08/21 05:36:10;;;;;;;3.85;3.00;;;16.20;87.80;;;14.75;100.00;96097.22;5020071;28;20042;-64
2022/08/21 05:38:36;;;;;;;3.42;2.90;;;16.40;87.80;;;14.82;100.00;96103.28;5004033;28;20038;-64
2022/08/21 05:41:01;;;;;;;2.90;2.58;;;16.50;87.50;;;14.89;100.00;96106.69;5003091;28;20073;-64
2022/08/21 05:43:27;;;;;;;3.05;2.70;;;16.60;87.50;;;14.98;100.00;96105.41;5003088;28;20038;-64
2022/08/21 05:45:53;;;;;;;3.15;2.80;;;16.70;87.30;;;15.08;100.00;96110.22;5007141;28;20037;-64
2022/08/21 05:48:24;;;;;;;4.15;3.00;;;16.80;86.90;;;15.17;100.00;96108.94;5009934;28;20038;-64
2022/08/21 05:50:50;;;;;;;;;;;16.90;86.50;;;15.23;100.00;96108.03;4997886;28;20564;-64
2022/08/21 05:53:17;;;;;;;4.40;2.95;;;17.00;86.40;;;15.31;100.00;96111.22;5006228;28;19918;-64
2022/08/21 05:55:43;;;;;;;3.65;3.20;;;17.10;86.60;;;15.43;100.00;96113.97;5012565;28;20451;-64
2022/08/21 05:58:09;;;;;;;3.53;2.80;;;17.20;86.30;;;15.53;100.00;96111.63;5023651;28;20042;-64
2022/08/21 06:00:34;;;;;;;2.63;2.30;;;17.40;85.70;;;15.64;100.00;96120.75;4996940;28;20117;-64
2022/08/21 06:03:00;;;;;;;3.80;2.47;;;17.50;85.40;;;15.75;100.00;96122.66;5011229;28;20626;-64
2022/08/21 06:05:26;;;;;;;4.50;2.70;;;17.60;84.60;;;15.84;100.00;96110.72;5006572;28;20413;-64
2022/08/21 06:07:52;;;;;;;4.82;2.60;;;17.70;84.20;;;15.95;100.00;96116.31;4988005;28;20030;-64
2022/08/21 06:10:18;;;;;;;3.50;2.53;;;17.80;83.90;;;16.03;100.00;96113.34;5013100;28;20034;-64
2022/08/21 06:12:44;;;;;;;4.07;2.58;;;17.80;84.10;;;16.14;100.00;96117.94;5026763;28;20500;-64
2022/08/21 06:15:10;;;;;;;3.10;2.63;;;18.00;83.70;;;16.23;100.00;96109.41;5028400;28;20501;-64
2022/08/21 06:17:35;;;;;;;3.97;2.65;;;18.10;83.50;;;16.34;100.00;96110.53;5027064;28;20531;-64
2022/08/21 06:20:01;;;;;;;3.55;2.50;;;18.20;83.10;;;16.42;100.00;96112.84;5011233;28;20065;-68
2022/08/21 06:22:28;;;;;;;4.50;2.47;;;18.40;83.10;;;16.53;100.00;96114.75;5012170;28;20034;-68
2022/08/21 06:24:54;;;;;;;3.55;2.42;;;18.50;82.50;;;16.62;100.00;96117.09;5010874;28;20086;-69
2022/08/21 06:27:20;;;;;;;5.22;2.30;;;18.60;81.90;;;16.72;100.00;96114.69;5012752;28;20598;-67
2022/08/21 06:29:45;;;;;;;4.25;2.40;;;18.70;82.10;;;16.81;100.00;96119.47;5026947;28;20037;-67
2022/08/21 06:32:12;;;;;;;3.63;2.17;;;18.80;81.80;;;16.91;100.00;96110.94;5012397;28;20042;-66
2022/08/21 06:34:39;;;;;;;3.45;2.28;;;19.00;81.30;;;17.00;100.00;96106.94;5020850;28;20034;-66
2022/08/21 06:37:05;;;;;;;4.03;2.28;;;19.10;81.20;;;17.09;100.00;96108.22;5027796;28;20030;-68
2022/08/21 06:39:31;;;;;;;3.22;2.03;;;19.30;80.30;;;17.18;100.00;96105.19;5022319;28;20602;-65
2022/08/21 06:41:57;;;;;;;4.00;2.22;;;19.30;80.50;;;17.26;100.00;96110.19;5024151;28;20084;-66
2022/08/21 06:44:22;;;;;;;4.20;2.55;;;19.40;80.50;;;17.32;100.00;96112.72;5007791;28;20509;-65
2022/08/21 06:46:48;;;;;;;4.10;2.45;;;19.40;79.80;;;17.38;100.00;96111.00;5009043;28;20048;-66
2022/08/21 06:49:14;;;;;;;4.32;2.83;;;19.50;79.80;;;17.44;100.00;96102.13;5018871;28;20034;-68
2022/08/21 06:51:40;;;;;;;5.53;2.50;;;19.40;78.90;;;17.49;100.00;96101.41;5026538;28;20053;-69
2022/08/21 06:54:06;;;;;;;5.63;2.60;;;19.40;79.50;;;17.53;100.00;96099.91;5011237;28;20131;-63
2022/08/21 06:56:33;;;;;;;6.05;3.55;;;19.50;78.90;;;17.57;100.00;96098.38;5024924;28;20026;-63
2022/08/21 06:58:58;;;;;;;3.83;2.92;;;19.50;79.40;;;17.62;100.00;96099.31;5023738;28;20033;-63
2022/08/21 07:01:25;;;;;;;3.65;2.90;;;19.50;79.50;;;17.67;100.00;96099.47;5004531;28;20123;-64
2022/08/21 07:03:51;;;;;;;7.80;3.10;;;19.50;79.40;;;17.71;100.00;96105.94;5028235;28;20048;-63
2022/08/21 07:06:16;;;;;;;4.20;2.67;;;19.60;79.60;;;17.78;100.00;96094.34;5022756;28;20042;-63
2022/08/21 07:08:42;;;;;;;4.13;3.22;;;19.60;79.90;;;17.84;100.00;96098.72;5024960;28;20117;-67
2022/08/21 07:11:21;;;;;;;6.00;3.38;;;19.70;79.00;;;17.88;100.00;96094.53;5012798;28;20072;-67
2022/08/21 07:13:48;;;;;;;5.10;3.45;;;19.70;77.70;;;17.94;100.00;96093.63;5025517;28;20030;-66
2022/08/21 07:16:13;;;;;;;5.53;3.28;;;19.70;77.40;;;17.98;100.00;96095.59;5030637;28;20440;-67
2022/08/21 07:18:39;;;;;;;6.03;3.70;;;19.70;76.00;;;18.04;100.00;96099.16;5038366;28;20057;-67
2022/08/21 07:21:05;;;;;;;5.65;3.35;;;19.80;76.80;;;18.11;100.00;96094.53;5012208;28;20126;-66
2022/08/21 07:23:40;;;;;;;4.65;3.40;;;19.90;76.90;;;18.21;100.00;96088.56;5014183;28;20033;-67
2022/08/21 07:26:06;;;;;;;5.38;3.45;;;20.10;75.90;;;18.32;100.00;96095.69;5009644;28;20092;-67
2022/08/21 07:28:32;;;;;;;4.80;3.58;;;20.30;76.20;;;18.48;100.00;96104.78;4995697;28;20033;-67
2022/08/21 07:30:59;;;;;;;4.45;2.80;;;20.60;75.40;;;18.62;100.00;96095.47;5027994;28;20034;-67
2022/08/21 07:33:26;;;;;;;6.65;3.13;;;20.60;72.70;;;18.73;100.00;96091.16;5026612;28;20076;-67
2022/08/21 07:35:52;;;;;;;4.50;3.00;;;20.80;73.70;;;18.92;100.00;96090.69;5025578;28;20038;-66
2022/08/21 07:38:18;;;;;;;4.07;3.33;;;21.30;74.60;;;19.17;100.00;96089.47;5027739;28;20025;-66
2022/08/21 07:40:45;;;;;;;4.45;3.15;;;21.90;72.70;;;19.38;100.00;96094.06;5027463;28;20036;-67
2022/08/21 07:43:11;;;;;;;4.30;2.75;;;22.30;69.80;;;19.61;100.00;96087.75;5009855;28;20034;-67
2022/08/21 07:45:37;;;;;;;4.63;2.20;;;22.70;68.90;;;19.86;100.00;96090.75;4995972;28;20171;-67
2022/08/21 07:48:03;;;;;;;4.20;2.90;;;23.20;68.40;;;20.10;100.00;96085.97;4989578;28;20030;-67
2022/08/21 07:50:29;;;;;;;6.15;3.10;;;23.30;65.50;;;20.28;100.00;96092.88;5025351;28;20038;-67
2022/08/21 07:52:55;;;;;;;3.25;2.75;;;23.50;64.10;;;20.44;100.00;96086.69;5028518;28;20567;-67
2022/08/21 07:55:21;;;;;;;4.57;2.83;;;23.70;64.50;;;20.66;100.00;96089.31;5010055;28;20524;-67
2022/08/21 07:57:47;;;;;;;5.95;2.45;;;24.00;63.10;;;20.87;100.00;96084.16;4987934;28;20056;-66
2022/08/21 08:00:16;;;;;;;6.07;3.30;;;24.40;63.50;;;21.13;100.00;96072.59;5012408;28;20588;-66
2022/08/21 08:02:45;;;;;;;3.90;3.10;;;24.70;63.00;;;21.38;100.00;96074.69;5026156;28;20433;-66
2022/08/21 08:05:11;;;;;;;4.75;3.08;;;25.00;61.90;;;21.61;100.00;96076.16;5028954;28;20401;-67
2022/08/21 08:07:37;;;;;;;7.57;2.80;;;25.30;60.00;;;21.86;100.00;96070.13;5007489;28;20034;-67
2022/08/21 08:10:04;;;;;;;7.50;3.10;;;25.70;60.40;;;22.12;100.00;96076.44;5028566;28;20048;-66
2022/08/21 08:12:30;;;;;;;3.88;3.00;;;25.90;58.80;;;22.31;100.00;96074.88;5013125;28;20120;-66
2022/08/21 08:14:57;;;;;;;5.80;3.03;;;26.00;58.20;;;22.53;100.00;96075.47;5021722;28;20034;-66
2022/08/21 08:17:23;;;;;;;3.42;2.70;;;26.30;58.60;;;22.74;98.39;96075.53;5014977;28;20037;-67
2022/08/21 08:19:49;;;;;;;4.35;2.90;;;26.30;56.50;;;22.91;96.32;96076.91;5028315;28;20501;-66
2022/08/21 08:22:17;;;;;;;8.75;3.45;;;26.50;55.00;;;23.06;96.34;96072.63;5026094;28;20034;-67
2022/08/21 08:24:42;;;;;;;4.57;2.47;;;26.60;56.40;;;23.26;96.06;96074.50;4975626;28;20030;-67
2022/08/21 08:27:08;;;;;;;4.80;2.85;;;27.10;55.80;;;23.44;95.03;96074.75;5013509;28;20033;-67
2022/08/21 08:29:34;;;;;;;5.63;2.85;;;27.30;55.50;;;23.62;94.16;96076.09;5021722;28;20034;-66
2022/08/21 08:32:00;;;;;;;5.20;2.90;;;27.00;55.20;;;23.67;92.79;96078.75;5028298;28;20084;-67
2022/08/21 08:34:26;;;;;;;3.65;2.90;;;26.70;55.50;;;23.75;91.21;96064.75;5027327;28;20042;-67
2022/08/21 08:36:52;;;;;;;4.30;3.30;;;26.80;55.30;;;23.80;90.72;96072.81;5027776;28;20021;-67
2022/08/21 08:39:18;;;;;;;4.43;2.80;;;26.70;55.50;;;23.89;91.32;96070.38;5026305;28;20065;-66
2022/08/21 08:41:44;;;;;;;3.83;2.92;;;26.80;56.30;;;24.01;89.97;96072.75;5024925;28;20058;-67
2022/08/21 08:44:10;;;;;;;3.95;3.22;;;27.10;55.40;;;24.08;89.19;96067.88;5007873;28;20038;-67
2022/08/21 08:46:46;;;;;;;6.95;3.42;;;27.10;54.50;;;24.21;85.26;96069.97;4987699;28;20041;-67
2022/08/21 08:49:36;;;;;;;3.90;3.30;;;27.60;53.60;;;24.46;83.72;96070.97;5008070;28;20490;-67
2022/08/21 08:52:24;;;;;;;8.85;3.03;;;28.10;52.90;;;24.73;84.52;96071.34;5023956;28;20029;-67
2022/08/21 08:55:11;;;;;;;4.07;3.22;;;28.60;52.10;;;24.98;81.91;96064.97;5015689;28;20033;-67
2022/08/21 08:57:38;;;;;;;4.30;2.78;;;28.80;50.40;;;25.15;85.78;96072.69;5005957;28;20065;-67
2022/08/21 09:00:10;;;;;;;4.13;3.35;;;28.90;50.40;;;25.37;81.17;96062.25;4994472;28;20425;-67
2022/08/21 09:02:38;;;;;;;5.05;3.22;;;29.10;49.90;;;25.58;82.80;96063.66;4999962;28;20026;-67
2022/08/21 09:05:05;;;;;;;4.57;3.20;;;29.30;50.00;;;25.80;81.78;96070.44;5001756;28;20083;-67
2022/08/21 09:07:47;;;;;;;3.80;3.00;;;29.40;48.30;;;25.98;76.78;96058.94;5027014;28;20054;-67
2022/08/21 09:10:25;;;;;;;4.43;3.30;;;29.60;48.40;;;26.19;76.71;96062.19;5011701;28;20037;-66
2022/08/21 09:13:23;;;;;;;4.55;3.25;;;29.70;48.80;;;26.42;76.12;96053.28;5027216;28;20033;-66
2022/08/21 09:16:00;;;;;;;4.78;2.80;;;29.90;48.80;;;26.66;76.22;96050.50;5037673;28;20036;-66
2022/08/21 09:19:06;;;;;;;6.82;2.92;;;30.10;47.80;;;26.83;73.92;96048.09;5027473;28;20037;-66
2022/08/21 09:22:07;;;;;;;3.83;3.10;;;30.20;48.00;;;27.13;72.65;96048.72;5015676;28;20519;-64
2022/08/21 09:24:43;;;;;;;4.57;2.15;;;30.70;46.70;;;27.44;73.37;96047.13;5011848;28;20041;-66
2022/08/21 09:27:16;;;;;;;3.38;2.97;;;31.30;45.90;;;27.63;71.26;96057.09;5023438;28;20453;-67
2022/08/21 09:29:44;;;;;;;4.00;2.97;;;30.80;46.20;;;27.67;73.80;96052.69;5015808;28;20038;-67
2022/08/21 09:32:22;;;;;;;5.18;3.38;;;31.10;45.80;;;27.92;69.53;96054.91;4969136;28;20133;-67
2022/08/21 09:35:14;;;;;;;4.13;2.65;;;31.50;44.10;;;28.09;67.96;96053.50;4987836;28;20532;-67
2022/08/21 09:37:52;;;;;;;4.55;2.92;;;31.70;44.40;;;28.23;67.92;96054.28;5022617;28;20504;-67
2022/08/21 09:40:35;;;;;;;4.47;3.50;;;31.70;44.40;;;28.46;65.63;96053.28;5016514;28;20400;-65
2022/08/21 09:43:21;;;;;;;3.70;2.92;;;32.10;42.60;;;28.74;64.51;96053.19;5036762;28;20525;-64
2022/08/21 09:45:48;;;;;;;3.95;2.20;;;32.70;41.40;;;29.09;69.43;96054.31;5032702;28;20037;-65
2022/08/21 09:48:22;;;;;;;5.43;2.75;;;33.50;41.80;;;29.27;66.93;96051.41;4986609;28;20088;-65
2022/08/21 09:50:49;;;;;;;4.07;2.65;;;32.60;42.90;;;29.09;68.78;96049.69;5005784;28;20037;-64
2022/08/21 09:53:19;;;;;;;4.43;2.65;;;31.70;44.40;;;28.84;65.73;96040.25;4987167;28;20048;-64
2022/08/21 09:58:45;;;;;;;5.50;2.88;;;30.40;45.90;;;28.13;67.41;96043.69;5019272;28;20056;-65
2022/08/21 10:01:18;;;;;;;3.72;2.50;;;30.00;47.40;;;27.82;66.29;96043.47;5020853;28;20045;-65
2022/08/21 10:03:44;;;;;;;3.60;2.95;;;29.60;48.40;;;27.57;69.26;96042.03;5023262;28;20038;-65
2022/08/21 10:06:10;;;;;;;2.72;2.53;;;29.30;49.20;;;27.56;69.71;96032.31;5007890;28;20042;-64
2022/08/21 10:08:40;;;;;;;4.72;2.97;;;30.70;46.70;;;27.61;66.58;96037.63;5006071;28;20581;-64
2022/08/21 10:11:07;;;;;;;;;;;30.20;46.50;;;27.44;66.16;96033.63;5005437;28;20034;-64
2022/08/21 10:13:56;;;;;;;5.63;2.80;;;29.60;47.70;;;27.24;67.27;96035.88;5023365;28;19917;-65
2022/08/21 10:16:35;;;;;;;2.90;2.58;;;29.20;48.90;;;27.00;67.79;96038.69;5023575;28;20041;-67
2022/08/21 10:19:39;;;;;;;3.95;2.97;;;29.00;49.70;;;27.01;67.43;96029.50;5021294;28;20037;-66
2022/08/21 10:22:26;;;;;;;5.40;2.70;;;30.20;46.90;;;27.35;66.48;96031.88;5020619;28;20056;-64